sensor_id;sensor_type;location;lat;lon;timestamp;P1;durP1;ratioP1;P2;durP2;ratioP2
60233;SDS011;49514;43.538;-5.708;2023-12-20T00:01:35;11.02;;;1.30;;
60233;SDS011;49514;43.538;-5.708;2023-12-20T00:04:02;8.50;;;1.75;;
60233;SDS011;49514;43.538;-5.708;2023-12-20T00:06:30;10.23;;;1.20;;
60233;SDS011;49514;43.538;-5.708;2023-12-20T00:08:56;9.65;;;1.08;;
60233;SDS011;49514;43.538;-5.708;2023-12-20T00:11:26;7.28;;;1.13;;
60233;SDS011;49514;43.538;-5.708;2023-12-20T00:13:52;11.35;;;1.40;;
60233;SDS011;49514;43.538;-5.708;2023-12-20T00:16:19;9.45;;;1.40;;
60233;SDS011;49514;43.538;-5.708;2023-12-20T00:18:46;5.55;;;0.95;;
60233;SDS011;49514;43.538;-5.708;2023-12-20T00:21:12;8.50;;;1.20;;
60233;SDS011;49514;43.538;-5.708;2023-12-20T00:23:39;21.10;;;1.13;;
60233;SDS011;49514;43.538;-5.708;2023-12-20T00:26:05;8.05;;;1.30;;
60233;SDS011;49514;43.538;-5.708;2023-12-20T00:28:32;13.70;;;1.35;;
60233;SDS011;49514;43.538;-5.708;2023-12-20T00:30:59;13.48;;;1.48;;
60233;SDS011;49514;43.538;-5.708;2023-12-20T02:23:22;8.43;;;1.50;;
60233;SDS011;49514;43.538;-5.708;2023-12-20T02:25:48;12.30;;;1.40;;
60233;SDS011;49514;43.538;-5.708;2023-12-20T02:28:15;8.65;;;1.35;;
60233;SDS011;49514;43.538;-5.708;2023-12-20T02:30:42;9.55;;;1.58;;
60233;SDS011;49514;43.538;-5.708;2023-12-20T02:33:10;10.27;;;1.20;;
60233;SDS011;49514;43.538;-5.708;2023-12-20T02:35:39;10.55;;;1.17;;
60233;SDS011;49514;43.538;-5.708;2023-12-20T02:38:05;7.90;;;1.30;;
60233;SDS011;49514;43.538;-5.708;2023-12-20T02:40:32;7.28;;;1.00;;
60233;SDS011;49514;43.538;-5.708;2023-12-20T02:42:59;5.97;;;1.42;;
60233;SDS011;49514;43.538;-5.708;2023-12-20T02:45:26;9.40;;;1.02;;
60233;SDS011;49514;43.538;-5.708;2023-12-20T02:47:53;5.85;;;0.93;;
60233;SDS011;49514;43.538;-5.708;2023-12-20T02:50:19;4.45;;;0.95;;
60233;SDS011;49514;43.538;-5.708;2023-12-20T02:52:46;2.30;;;0.75;;
60233;SDS011;49514;43.538;-5.708;2023-12-20T02:55:13;4.07;;;0.55;;
60233;SDS011;49514;43.538;-5.708;2023-12-20T02:57:39;4.18;;;0.77;;
60233;SDS011;49514;43.538;-5.708;2023-12-20T03:00:09;2.90;;;0.73;;
60233;SDS011;49514;43.538;-5.708;2023-12-20T03:02:39;3.65;;;0.50;;
60233;SDS011;49514;43.538;-5.708;2023-12-20T03:05:06;2.50;;;0.40;;
60233;SDS011;49514;43.538;-5.708;2023-12-20T03:07:33;4.80;;;0.70;;
60233;SDS011;49514;43.538;-5.708;2023-12-20T03:09:59;7.50;;;0.88;;
60233;SDS011;49514;43.538;-5.708;2023-12-20T03:12:26;5.88;;;0.70;;
60233;SDS011;49514;43.538;-5.708;2023-12-20T03:14:52;7.85;;;0.68;;
60233;SDS011;49514;43.538;-5.708;2023-12-20T03:17:19;4.25;;;0.50;;
60233;SDS011;49514;43.538;-5.708;2023-12-20T03:19:46;6.50;;;0.82;;
60233;SDS011;49514;43.538;-5.708;2023-12-20T03:22:13;5.50;;;0.73;;
60233;SDS011;49514;43.538;-5.708;2023-12-20T03:24:39;3.05;;;0.70;;
60233;SDS011;49514;43.538;-5.708;2023-12-20T03:27:06;7.30;;;1.20;;
60233;SDS011;49514;43.538;-5.708;2023-12-20T03:29:32;5.93;;;1.15;;
60233;SDS011;49514;43.538;-5.708;2023-12-20T03:31:59;7.70;;;0.90;;
60233;SDS011;49514;43.538;-5.708;2023-12-20T03:34:26;9.55;;;1.15;;
60233;SDS011;49514;43.538;-5.708;2023-12-20T03:36:53;7.90;;;0.98;;
60233;SDS011;49514;43.538;-5.708;2023-12-20T03:39:19;7.93;;;0.95;;
60233;SDS011;49514;43.538;-5.708;2023-12-20T03:41:46;13.55;;;1.08;;
60233;SDS011;49514;43.538;-5.708;2023-12-20T03:44:12;9.98;;;1.35;;
60233;SDS011;49514;43.538;-5.708;2023-12-20T03:46:39;11.02;;;1.00;;
60233;SDS011;49514;43.538;-5.708;2023-12-20T03:49:05;10.23;;;1.40;;
60233;SDS011;49514;43.538;-5.708;2023-12-20T03:51:32;7.40;;;0.98;;
60233;SDS011;49514;43.538;-5.708;2023-12-20T03:53:59;13.25;;;1.83;;
60233;SDS011;49514;43.538;-5.708;2023-12-20T03:56:26;13.40;;;1.60;;
60233;SDS011;49514;43.538;-5.708;2023-12-20T03:58:52;11.77;;;1.70;;
60233;SDS011;49514;43.538;-5.708;2023-12-20T04:01:19;15.52;;;2.33;;
60233;SDS011;49514;43.538;-5.708;2023-12-20T04:03:45;19.15;;;3.83;;
60233;SDS011;49514;43.538;-5.708;2023-12-20T04:06:16;12.90;;;1.83;;
60233;SDS011;49514;43.538;-5.708;2023-12-20T04:08:44;10.80;;;1.52;;
60233;SDS011;49514;43.538;-5.708;2023-12-20T04:11:10;14.52;;;1.95;;
60233;SDS011;49514;43.538;-5.708;2023-12-20T04:13:37;14.45;;;2.17;;
60233;SDS011;49514;43.538;-5.708;2023-12-20T04:16:03;13.18;;;2.45;;
60233;SDS011;49514;43.538;-5.708;2023-12-20T04:18:30;13.73;;;2.15;;
60233;SDS011;49514;43.538;-5.708;2023-12-20T04:20:57;11.20;;;1.67;;
60233;SDS011;49514;43.538;-5.708;2023-12-20T04:23:24;14.38;;;2.00;;
60233;SDS011;49514;43.538;-5.708;2023-12-20T04:25:51;18.67;;;2.53;;
60233;SDS011;49514;43.538;-5.708;2023-12-20T04:28:17;18.75;;;2.45;;
60233;SDS011;49514;43.538;-5.708;2023-12-20T04:30:44;24.20;;;3.50;;
60233;SDS011;49514;43.538;-5.708;2023-12-20T04:33:10;16.45;;;2.13;;
60233;SDS011;49514;43.538;-5.708;2023-12-20T04:35:37;18.48;;;2.20;;
60233;SDS011;49514;43.538;-5.708;2023-12-20T04:38:03;23.02;;;2.88;;
60233;SDS011;49514;43.538;-5.708;2023-12-20T04:40:30;18.88;;;2.47;;
60233;SDS011;49514;43.538;-5.708;2023-12-20T04:42:56;14.77;;;2.10;;
60233;SDS011;49514;43.538;-5.708;2023-12-20T04:45:23;19.05;;;2.25;;
60233;SDS011;49514;43.538;-5.708;2023-12-20T04:47:51;12.43;;;1.98;;
60233;SDS011;49514;43.538;-5.708;2023-12-20T04:50:17;14.85;;;2.03;;
60233;SDS011;49514;43.538;-5.708;2023-12-20T04:52:45;17.77;;;2.47;;
60233;SDS011;49514;43.538;-5.708;2023-12-20T04:55:12;10.60;;;1.75;;
60233;SDS011;49514;43.538;-5.708;2023-12-20T04:57:39;13.90;;;2.08;;
60233;SDS011;49514;43.538;-5.708;2023-12-20T05:00:06;12.30;;;1.85;;
60233;SDS011;49514;43.538;-5.708;2023-12-20T05:02:35;18.50;;;2.40;;
60233;SDS011;49514;43.538;-5.708;2023-12-20T05:05:02;11.45;;;1.88;;
60233;SDS011;49514;43.538;-5.708;2023-12-20T05:07:29;12.85;;;1.90;;
60233;SDS011;49514;43.538;-5.708;2023-12-20T05:09:55;16.92;;;2.00;;
60233;SDS011;49514;43.538;-5.708;2023-12-20T05:12:22;16.40;;;2.13;;
60233;SDS011;49514;43.538;-5.708;2023-12-20T05:14:48;14.32;;;2.10;;
60233;SDS011;49514;43.538;-5.708;2023-12-20T05:17:15;11.05;;;1.88;;
60233;SDS011;49514;43.538;-5.708;2023-12-20T05:19:41;13.82;;;1.92;;
60233;SDS011;49514;43.538;-5.708;2023-12-20T05:22:08;13.88;;;2.25;;
60233;SDS011;49514;43.538;-5.708;2023-12-20T05:24:35;13.55;;;2.53;;
60233;SDS011;49514;43.538;-5.708;2023-12-20T05:27:02;11.18;;;2.00;;
60233;SDS011;49514;43.538;-5.708;2023-12-20T05:29:28;12.82;;;1.67;;
60233;SDS011;49514;43.538;-5.708;2023-12-20T05:31:55;13.90;;;2.15;;
60233;SDS011;49514;43.538;-5.708;2023-12-20T05:34:21;13.32;;;1.70;;
60233;SDS011;49514;43.538;-5.708;2023-12-20T05:36:48;13.68;;;1.48;;
60233;SDS011;49514;43.538;-5.708;2023-12-20T11:06:09;12.73;;;1.77;;
60233;SDS011;49514;43.538;-5.708;2023-12-20T11:11:06;3.25;;;0.73;;
60233;SDS011;49514;43.538;-5.708;2023-12-20T11:13:43;7.78;;;1.20;;
60233;SDS011;49514;43.538;-5.708;2023-12-20T11:16:20;3.80;;;1.10;;
60233;SDS011;49514;43.538;-5.708;2023-12-20T11:18:47;5.32;;;1.15;;
60233;SDS011;49514;43.538;-5.708;2023-12-20T11:21:13;7.80;;;1.20;;
60233;SDS011;49514;43.538;-5.708;2023-12-20T11:23:42;6.75;;;1.15;;
60233;SDS011;49514;43.538;-5.708;2023-12-20T11:26:08;5.60;;;1.17;;
60233;SDS011;49514;43.538;-5.708;2023-12-20T11:28:35;6.88;;;1.10;;
60233;SDS011;49514;43.538;-5.708;2023-12-20T12:13:19;14.35;;;1.85;;
60233;SDS011;49514;43.538;-5.708;2023-12-20T12:15:47;7.75;;;1.48;;
60233;SDS011;49514;43.538;-5.708;2023-12-20T12:18:16;2.80;;;1.08;;
60233;SDS011;49514;43.538;-5.708;2023-12-20T12:20:43;4.30;;;1.23;;
60233;SDS011;49514;43.538;-5.708;2023-12-20T12:23:11;7.70;;;3.13;;
60233;SDS011;49514;43.538;-5.708;2023-12-20T12:25:38;13.77;;;2.72;;
60233;SDS011;49514;43.538;-5.708;2023-12-20T12:28:05;10.52;;;1.83;;
60233;SDS011;49514;43.538;-5.708;2023-12-20T12:30:31;5.93;;;1.23;;
60233;SDS011;49514;43.538;-5.708;2023-12-20T12:45:10;8.02;;;1.30;;
60233;SDS011;49514;43.538;-5.708;2023-12-20T13:04:44;7.45;;;1.35;;
60233;SDS011;49514;43.538;-5.708;2023-12-20T13:07:11;5.78;;;1.30;;
60233;SDS011;49514;43.538;-5.708;2023-12-20T13:24:20;3.45;;;1.10;;
60233;SDS011;49514;43.538;-5.708;2023-12-20T13:26:47;3.40;;;0.70;;
60233;SDS011;49514;43.538;-5.708;2023-12-20T13:29:14;1.65;;;0.80;;
60233;SDS011;49514;43.538;-5.708;2023-12-20T13:31:40;3.10;;;0.60;;
60233;SDS011;49514;43.538;-5.708;2023-12-20T13:41:31;2.85;;;0.75;;
60233;SDS011;49514;43.538;-5.708;2023-12-20T13:43:57;5.05;;;0.75;;
60233;SDS011;49514;43.538;-5.708;2023-12-20T13:46:24;1.58;;;0.45;;
60233;SDS011;49514;43.538;-5.708;2023-12-20T13:48:51;2.38;;;0.82;;
60233;SDS011;49514;43.538;-5.708;2023-12-20T13:51:18;2.92;;;0.73;;
60233;SDS011;49514;43.538;-5.708;2023-12-20T13:53:46;3.05;;;0.68;;
60233;SDS011;49514;43.538;-5.708;2023-12-20T13:56:15;2.25;;;0.60;;
60233;SDS011;49514;43.538;-5.708;2023-12-20T14:18:16;4.47;;;1.10;;
60233;SDS011;49514;43.538;-5.708;2023-12-20T14:20:44;12.27;;;1.60;;
60233;SDS011;49514;43.538;-5.708;2023-12-20T14:28:08;17.40;;;2.55;;
60233;SDS011;49514;43.538;-5.708;2023-12-20T14:30:36;28.60;;;4.15;;
60233;SDS011;49514;43.538;-5.708;2023-12-20T14:33:04;47.53;;;4.65;;
60233;SDS011;49514;43.538;-5.708;2023-12-20T15:07:28;11.88;;;2.40;;
60233;SDS011;49514;43.538;-5.708;2023-12-20T15:09:55;6.45;;;1.58;;
60233;SDS011;49514;43.538;-5.708;2023-12-20T15:12:22;7.20;;;1.20;;
60233;SDS011;49514;43.538;-5.708;2023-12-20T15:14:50;7.45;;;1.60;;
60233;SDS011;49514;43.538;-5.708;2023-12-20T15:17:17;12.98;;;3.88;;
60233;SDS011;49514;43.538;-5.708;2023-12-20T15:19:44;15.98;;;4.25;;
60233;SDS011;49514;43.538;-5.708;2023-12-20T15:22:11;19.77;;;4.70;;
60233;SDS011;49514;43.538;-5.708;2023-12-20T15:24:38;10.53;;;3.00;;
60233;SDS011;49514;43.538;-5.708;2023-12-20T15:27:06;19.63;;;3.07;;
60233;SDS011;49514;43.538;-5.708;2023-12-20T15:29:33;17.85;;;6.95;;
60233;SDS011;49514;43.538;-5.708;2023-12-20T15:32:00;18.33;;;3.90;;
60233;SDS011;49514;43.538;-5.708;2023-12-20T15:34:27;16.73;;;3.00;;
60233;SDS011;49514;43.538;-5.708;2023-12-20T15:36:53;26.38;;;4.35;;
60233;SDS011;49514;43.538;-5.708;2023-12-20T15:39:21;26.50;;;3.87;;
60233;SDS011;49514;43.538;-5.708;2023-12-20T15:41:47;29.08;;;3.70;;
60233;SDS011;49514;43.538;-5.708;2023-12-20T15:44:15;9.70;;;1.38;;
60233;SDS011;49514;43.538;-5.708;2023-12-20T15:46:41;10.73;;;1.50;;
60233;SDS011;49514;43.538;-5.708;2023-12-20T15:49:09;12.23;;;1.65;;
60233;SDS011;49514;43.538;-5.708;2023-12-20T15:51:39;26.23;;;6.50;;
60233;SDS011;49514;43.538;-5.708;2023-12-20T15:54:06;21.02;;;4.82;;
60233;SDS011;49514;43.538;-5.708;2023-12-20T15:56:34;20.03;;;3.37;;
60233;SDS011;49514;43.538;-5.708;2023-12-20T15:59:02;20.30;;;3.50;;
60233;SDS011;49514;43.538;-5.708;2023-12-20T16:01:29;13.93;;;2.38;;
60233;SDS011;49514;43.538;-5.708;2023-12-20T16:03:57;22.92;;;2.92;;
60233;SDS011;49514;43.538;-5.708;2023-12-20T16:06:24;20.13;;;5.63;;
60233;SDS011;49514;43.538;-5.708;2023-12-20T16:08:51;20.67;;;4.47;;
60233;SDS011;49514;43.538;-5.708;2023-12-20T16:11:18;27.77;;;4.93;;
60233;SDS011;49514;43.538;-5.708;2023-12-20T16:13:45;24.65;;;3.70;;
60233;SDS011;49514;43.538;-5.708;2023-12-20T16:18:39;6.88;;;1.33;;
60233;SDS011;49514;43.538;-5.708;2023-12-20T16:21:06;3.95;;;0.80;;
60233;SDS011;49514;43.538;-5.708;2023-12-20T16:23:32;9.20;;;1.10;;
60233;SDS011;49514;43.538;-5.708;2023-12-20T16:25:59;7.70;;;0.65;;
60233;SDS011;49514;43.538;-5.708;2023-12-20T16:28:26;3.63;;;0.70;;
60233;SDS011;49514;43.538;-5.708;2023-12-20T16:30:55;3.65;;;0.80;;
60233;SDS011;49514;43.538;-5.708;2023-12-20T16:33:22;4.55;;;1.20;;
60233;SDS011;49514;43.538;-5.708;2023-12-20T16:35:49;9.57;;;1.10;;
60233;SDS011;49514;43.538;-5.708;2023-12-20T16:38:16;8.75;;;1.50;;
60233;SDS011;49514;43.538;-5.708;2023-12-20T16:40:43;23.90;;;3.22;;
60233;SDS011;49514;43.538;-5.708;2023-12-20T16:43:10;11.35;;;4.10;;
60233;SDS011;49514;43.538;-5.708;2023-12-20T16:45:36;12.63;;;2.95;;
60233;SDS011;49514;43.538;-5.708;2023-12-20T16:48:03;12.15;;;2.58;;
60233;SDS011;49514;43.538;-5.708;2023-12-20T16:50:30;9.95;;;2.15;;
60233;SDS011;49514;43.538;-5.708;2023-12-20T16:52:57;15.43;;;2.20;;
60233;SDS011;49514;43.538;-5.708;2023-12-20T16:55:23;20.55;;;2.45;;
60233;SDS011;49514;43.538;-5.708;2023-12-20T16:57:50;22.90;;;3.15;;
60233;SDS011;49514;43.538;-5.708;2023-12-20T17:00:17;15.15;;;2.53;;
60233;SDS011;49514;43.538;-5.708;2023-12-20T17:02:43;17.85;;;2.47;;
60233;SDS011;49514;43.538;-5.708;2023-12-20T17:05:10;23.30;;;3.70;;
60233;SDS011;49514;43.538;-5.708;2023-12-20T17:07:37;13.75;;;2.35;;
60233;SDS011;49514;43.538;-5.708;2023-12-20T17:10:05;9.18;;;1.90;;
60233;SDS011;49514;43.538;-5.708;2023-12-20T17:12:33;4.93;;;1.65;;
60233;SDS011;49514;43.538;-5.708;2023-12-20T17:14:59;3.55;;;1.25;;
60233;SDS011;49514;43.538;-5.708;2023-12-20T17:17:26;5.30;;;1.60;;
60233;SDS011;49514;43.538;-5.708;2023-12-20T17:19:53;4.32;;;1.33;;
60233;SDS011;49514;43.538;-5.708;2023-12-20T17:22:20;5.30;;;1.70;;
60233;SDS011;49514;43.538;-5.708;2023-12-20T17:24:47;3.67;;;1.70;;
60233;SDS011;49514;43.538;-5.708;2023-12-20T17:27:13;5.25;;;1.60;;
60233;SDS011;49514;43.538;-5.708;2023-12-20T17:29:40;3.85;;;1.50;;
60233;SDS011;49514;43.538;-5.708;2023-12-20T17:32:07;8.93;;;2.28;;
60233;SDS011;49514;43.538;-5.708;2023-12-20T17:34:34;23.73;;;5.18;;
60233;SDS011;49514;43.538;-5.708;2023-12-20T17:37:05;21.10;;;3.80;;
60233;SDS011;49514;43.538;-5.708;2023-12-20T17:39:32;12.05;;;2.53;;
60233;SDS011;49514;43.538;-5.708;2023-12-20T17:41:58;9.43;;;1.25;;
60233;SDS011;49514;43.538;-5.708;2023-12-20T17:44:25;10.05;;;1.30;;
60233;SDS011;49514;43.538;-5.708;2023-12-20T17:46:52;8.32;;;1.63;;
60233;SDS011;49514;43.538;-5.708;2023-12-20T17:49:20;13.45;;;1.48;;
60233;SDS011;49514;43.538;-5.708;2023-12-20T17:51:47;6.43;;;1.38;;
60233;SDS011;49514;43.538;-5.708;2023-12-20T17:54:14;3.08;;;0.80;;
60233;SDS011;49514;43.538;-5.708;2023-12-20T17:56:41;4.13;;;1.02;;
60233;SDS011;49514;43.538;-5.708;2023-12-20T17:59:08;5.97;;;0.98;;
60233;SDS011;49514;43.538;-5.708;2023-12-20T18:01:34;5.65;;;1.00;;
60233;SDS011;49514;43.538;-5.708;2023-12-20T18:04:01;9.38;;;1.23;;
60233;SDS011;49514;43.538;-5.708;2023-12-20T18:06:29;11.00;;;0.93;;
60233;SDS011;49514;43.538;-5.708;2023-12-20T18:08:57;14.48;;;1.52;;
60233;SDS011;49514;43.538;-5.708;2023-12-20T18:11:23;15.25;;;1.83;;
60233;SDS011;49514;43.538;-5.708;2023-12-20T18:13:50;33.38;;;4.43;;
60233;SDS011;49514;43.538;-5.708;2023-12-20T18:16:17;30.02;;;5.95;;
60233;SDS011;49514;43.538;-5.708;2023-12-20T18:18:44;29.63;;;5.57;;
60233;SDS011;49514;43.538;-5.708;2023-12-20T18:21:14;32.28;;;4.90;;
60233;SDS011;49514;43.538;-5.708;2023-12-20T18:23:40;25.15;;;5.88;;
60233;SDS011;49514;43.538;-5.708;2023-12-20T18:26:07;13.45;;;2.78;;
60233;SDS011;49514;43.538;-5.708;2023-12-20T18:28:34;16.40;;;2.83;;
60233;SDS011;49514;43.538;-5.708;2023-12-20T18:31:02;11.68;;;2.40;;
60233;SDS011;49514;43.538;-5.708;2023-12-20T18:33:32;10.43;;;4.68;;
60233;SDS011;49514;43.538;-5.708;2023-12-20T18:36:04;18.70;;;3.53;;
60233;SDS011;49514;43.538;-5.708;2023-12-20T18:38:34;15.77;;;3.33;;
60233;SDS011;49514;43.538;-5.708;2023-12-20T18:41:01;9.50;;;2.97;;
60233;SDS011;49514;43.538;-5.708;2023-12-20T18:43:28;21.52;;;2.97;;
60233;SDS011;49514;43.538;-5.708;2023-12-20T18:45:57;10.52;;;1.27;;
60233;SDS011;49514;43.538;-5.708;2023-12-20T18:48:25;6.70;;;1.15;;
60233;SDS011;49514;43.538;-5.708;2023-12-20T18:50:52;6.90;;;1.10;;
60233;SDS011;49514;43.538;-5.708;2023-12-20T18:53:19;7.15;;;1.63;;
60233;SDS011;49514;43.538;-5.708;2023-12-20T18:55:45;12.25;;;1.60;;
60233;SDS011;49514;43.538;-5.708;2023-12-20T18:58:12;14.05;;;2.00;;
60233;SDS011;49514;43.538;-5.708;2023-12-20T19:00:39;17.63;;;4.70;;
60233;SDS011;49514;43.538;-5.708;2023-12-20T19:03:06;21.67;;;3.05;;
60233;SDS011;49514;43.538;-5.708;2023-12-20T19:05:38;26.50;;;2.92;;
60233;SDS011;49514;43.538;-5.708;2023-12-20T19:08:04;19.98;;;2.50;;
60233;SDS011;49514;43.538;-5.708;2023-12-20T19:10:31;24.33;;;4.20;;
60233;SDS011;49514;43.538;-5.708;2023-12-20T19:12:58;30.15;;;4.53;;
60233;SDS011;49514;43.538;-5.708;2023-12-20T19:15:25;40.10;;;4.55;;
60233;SDS011;49514;43.538;-5.708;2023-12-20T19:17:51;29.08;;;3.35;;
60233;SDS011;49514;43.538;-5.708;2023-12-20T19:20:21;16.70;;;3.38;;
60233;SDS011;49514;43.538;-5.708;2023-12-20T19:22:48;13.38;;;2.53;;
60233;SDS011;49514;43.538;-5.708;2023-12-20T19:25:15;17.00;;;3.65;;
60233;SDS011;49514;43.538;-5.708;2023-12-20T19:27:42;15.27;;;3.30;;
60233;SDS011;49514;43.538;-5.708;2023-12-20T19:30:09;17.75;;;3.80;;
60233;SDS011;49514;43.538;-5.708;2023-12-20T19:32:37;32.72;;;4.35;;
60233;SDS011;49514;43.538;-5.708;2023-12-20T19:35:04;25.92;;;3.20;;
60233;SDS011;49514;43.538;-5.708;2023-12-20T19:37:31;18.85;;;2.40;;
60233;SDS011;49514;43.538;-5.708;2023-12-20T19:39:58;19.20;;;2.03;;
60233;SDS011;49514;43.538;-5.708;2023-12-20T19:42:25;31.40;;;2.70;;
60233;SDS011;49514;43.538;-5.708;2023-12-20T19:44:51;13.45;;;2.63;;
60233;SDS011;49514;43.538;-5.708;2023-12-20T19:47:18;15.32;;;2.83;;
60233;SDS011;49514;43.538;-5.708;2023-12-20T19:49:45;15.43;;;3.75;;
60233;SDS011;49514;43.538;-5.708;2023-12-20T19:52:11;16.73;;;3.70;;
60233;SDS011;49514;43.538;-5.708;2023-12-20T19:54:39;20.02;;;4.22;;
60233;SDS011;49514;43.538;-5.708;2023-12-20T19:59:38;24.08;;;3.75;;
60233;SDS011;49514;43.538;-5.708;2023-12-20T20:02:05;24.75;;;3.10;;
60233;SDS011;49514;43.538;-5.708;2023-12-20T20:04:34;12.02;;;1.63;;
60233;SDS011;49514;43.538;-5.708;2023-12-20T20:07:01;12.57;;;1.92;;
60233;SDS011;49514;43.538;-5.708;2023-12-20T20:09:28;14.93;;;1.70;;
60233;SDS011;49514;43.538;-5.708;2023-12-20T20:11:54;22.13;;;2.55;;
60233;SDS011;49514;43.538;-5.708;2023-12-20T20:14:21;11.25;;;2.10;;
60233;SDS011;49514;43.538;-5.708;2023-12-20T20:16:53;21.83;;;3.17;;
60233;SDS011;49514;43.538;-5.708;2023-12-20T20:19:19;21.90;;;3.92;;
60233;SDS011;49514;43.538;-5.708;2023-12-20T20:21:46;25.33;;;4.55;;
60233;SDS011;49514;43.538;-5.708;2023-12-20T20:24:14;27.30;;;4.57;;
60233;SDS011;49514;43.538;-5.708;2023-12-20T20:26:41;28.63;;;3.92;;
60233;SDS011;49514;43.538;-5.708;2023-12-20T20:29:08;12.77;;;2.22;;
60233;SDS011;49514;43.538;-5.708;2023-12-20T20:31:35;14.38;;;2.55;;
60233;SDS011;49514;43.538;-5.708;2023-12-20T20:34:03;22.75;;;3.60;;
60233;SDS011;49514;43.538;-5.708;2023-12-20T20:36:31;35.95;;;4.25;;
60233;SDS011;49514;43.538;-5.708;2023-12-20T20:38:59;24.65;;;3.10;;
60233;SDS011;49514;43.538;-5.708;2023-12-20T20:41:26;20.63;;;2.42;;
60233;SDS011;49514;43.538;-5.708;2023-12-20T20:43:55;24.60;;;3.17;;
60233;SDS011;49514;43.538;-5.708;2023-12-20T20:46:23;11.18;;;2.30;;
60233;SDS011;49514;43.538;-5.708;2023-12-20T20:48:52;11.52;;;2.80;;
60233;SDS011;49514;43.538;-5.708;2023-12-20T20:51:20;4.75;;;1.80;;
60233;SDS011;49514;43.538;-5.708;2023-12-20T20:53:47;14.23;;;1.80;;
60233;SDS011;49514;43.538;-5.708;2023-12-20T20:56:14;29.77;;;3.42;;
60233;SDS011;49514;43.538;-5.708;2023-12-20T20:58:40;13.25;;;1.42;;
60233;SDS011;49514;43.538;-5.708;2023-12-20T21:01:07;12.75;;;2.13;;
60233;SDS011;49514;43.538;-5.708;2023-12-20T21:03:34;9.13;;;1.10;;
60233;SDS011;49514;43.538;-5.708;2023-12-20T21:06:01;4.95;;;1.20;;
60233;SDS011;49514;43.538;-5.708;2023-12-20T21:08:28;13.55;;;1.80;;
60233;SDS011;49514;43.538;-5.708;2023-12-20T21:10:54;8.85;;;1.30;;
60233;SDS011;49514;43.538;-5.708;2023-12-20T21:13:24;17.95;;;2.38;;
60233;SDS011;49514;43.538;-5.708;2023-12-20T21:15:52;8.30;;;1.10;;
60233;SDS011;49514;43.538;-5.708;2023-12-20T21:18:19;9.35;;;1.83;;
60233;SDS011;49514;43.538;-5.708;2023-12-20T21:20:46;14.60;;;1.80;;
60233;SDS011;49514;43.538;-5.708;2023-12-20T21:23:14;13.32;;;2.22;;
60233;SDS011;49514;43.538;-5.708;2023-12-20T21:25:43;20.23;;;3.15;;
60233;SDS011;49514;43.538;-5.708;2023-12-20T21:28:10;26.63;;;3.22;;
60233;SDS011;49514;43.538;-5.708;2023-12-20T21:30:38;16.25;;;2.30;;
60233;SDS011;49514;43.538;-5.708;2023-12-20T21:33:05;18.20;;;2.95;;
60233;SDS011;49514;43.538;-5.708;2023-12-20T21:35:34;7.05;;;3.15;;
60233;SDS011;49514;43.538;-5.708;2023-12-20T21:38:01;5.95;;;1.30;;
60233;SDS011;49514;43.538;-5.708;2023-12-20T21:40:28;1.42;;;0.90;;
60233;SDS011;49514;43.538;-5.708;2023-12-20T21:42:55;4.40;;;1.15;;
60233;SDS011;49514;43.538;-5.708;2023-12-20T21:45:22;2.70;;;1.40;;
60233;SDS011;49514;43.538;-5.708;2023-12-20T21:47:49;4.50;;;1.60;;
60233;SDS011;49514;43.538;-5.708;2023-12-20T21:50:19;3.95;;;1.58;;
60233;SDS011;49514;43.538;-5.708;2023-12-20T21:52:48;5.55;;;1.65;;
60233;SDS011;49514;43.538;-5.708;2023-12-20T21:55:15;3.47;;;1.75;;
60233;SDS011;49514;43.538;-5.708;2023-12-20T21:57:42;4.07;;;1.80;;
60233;SDS011;49514;43.538;-5.708;2023-12-20T22:00:09;3.33;;;1.55;;
60233;SDS011;49514;43.538;-5.708;2023-12-20T22:02:37;21.13;;;13.65;;
60233;SDS011;49514;43.538;-5.708;2023-12-20T22:05:05;24.70;;;14.68;;
60233;SDS011;49514;43.538;-5.708;2023-12-20T22:07:34;9.30;;;3.40;;
60233;SDS011;49514;43.538;-5.708;2023-12-20T22:10:00;9.80;;;4.78;;
60233;SDS011;49514;43.538;-5.708;2023-12-20T22:12:28;5.45;;;3.45;;
60233;SDS011;49514;43.538;-5.708;2023-12-20T22:14:55;8.93;;;4.72;;
60233;SDS011;49514;43.538;-5.708;2023-12-20T22:17:21;4.10;;;1.90;;
60233;SDS011;49514;43.538;-5.708;2023-12-20T22:19:48;7.35;;;1.60;;
60233;SDS011;49514;43.538;-5.708;2023-12-20T22:22:15;4.00;;;1.80;;
60233;SDS011;49514;43.538;-5.708;2023-12-20T22:24:42;9.43;;;2.17;;
60233;SDS011;49514;43.538;-5.708;2023-12-20T22:27:09;9.52;;;2.20;;
60233;SDS011;49514;43.538;-5.708;2023-12-20T22:29:36;8.75;;;2.10;;
60233;SDS011;49514;43.538;-5.708;2023-12-20T22:32:04;23.30;;;3.17;;
60233;SDS011;49514;43.538;-5.708;2023-12-20T22:34:34;20.73;;;2.97;;
60233;SDS011;49514;43.538;-5.708;2023-12-20T22:37:01;8.15;;;1.70;;
60233;SDS011;49514;43.538;-5.708;2023-12-20T22:39:29;8.75;;;1.80;;
60233;SDS011;49514;43.538;-5.708;2023-12-20T22:41:56;5.10;;;1.70;;
60233;SDS011;49514;43.538;-5.708;2023-12-20T22:44:23;5.32;;;1.50;;
60233;SDS011;49514;43.538;-5.708;2023-12-20T22:46:50;2.95;;;0.93;;
60233;SDS011;49514;43.538;-5.708;2023-12-20T22:49:17;2.67;;;0.90;;
60233;SDS011;49514;43.538;-5.708;2023-12-20T22:51:46;2.28;;;1.05;;
60233;SDS011;49514;43.538;-5.708;2023-12-20T22:54:14;2.25;;;0.90;;
60233;SDS011;49514;43.538;-5.708;2023-12-20T22:56:41;3.50;;;0.90;;
60233;SDS011;49514;43.538;-5.708;2023-12-20T22:59:08;2.65;;;0.60;;
60233;SDS011;49514;43.538;-5.708;2023-12-20T23:01:39;3.08;;;0.90;;
60233;SDS011;49514;43.538;-5.708;2023-12-20T23:04:06;2.05;;;0.88;;
60233;SDS011;49514;43.538;-5.708;2023-12-20T23:06:33;2.47;;;0.88;;
60233;SDS011;49514;43.538;-5.708;2023-12-20T23:08:59;3.80;;;0.90;;
60233;SDS011;49514;43.538;-5.708;2023-12-20T23:11:26;3.45;;;0.98;;
60233;SDS011;49514;43.538;-5.708;2023-12-20T23:13:54;1.95;;;0.80;;
60233;SDS011;49514;43.538;-5.708;2023-12-20T23:16:21;1.52;;;0.80;;
60233;SDS011;49514;43.538;-5.708;2023-12-20T23:18:48;1.88;;;0.88;;
60233;SDS011;49514;43.538;-5.708;2023-12-20T23:21:15;1.98;;;0.68;;
60233;SDS011;49514;43.538;-5.708;2023-12-20T23:23:42;2.10;;;0.80;;
60233;SDS011;49514;43.538;-5.708;2023-12-20T23:26:11;1.52;;;0.60;;
60233;SDS011;49514;43.538;-5.708;2023-12-20T23:28:38;2.03;;;0.80;;
60233;SDS011;49514;43.538;-5.708;2023-12-20T23:31:07;2.63;;;0.90;;
60233;SDS011;49514;43.538;-5.708;2023-12-20T23:33:34;2.13;;;0.80;;
60233;SDS011;49514;43.538;-5.708;2023-12-20T23:36:01;1.35;;;0.90;;
60233;SDS011;49514;43.538;-5.708;2023-12-20T23:38:28;1.80;;;0.70;;
60233;SDS011;49514;43.538;-5.708;2023-12-20T23:40:54;3.05;;;1.30;;
60233;SDS011;49514;43.538;-5.708;2023-12-20T23:43:21;2.40;;;1.00;;
60233;SDS011;49514;43.538;-5.708;2023-12-20T23:45:48;2.40;;;0.77;;
60233;SDS011;49514;43.538;-5.708;2023-12-20T23:48:15;1.38;;;0.60;;
60233;SDS011;49514;43.538;-5.708;2023-12-20T23:50:41;1.35;;;0.70;;
60233;SDS011;49514;43.538;-5.708;2023-12-20T23:53:08;3.05;;;1.20;;
60233;SDS011;49514;43.538;-5.708;2023-12-20T23:55:38;27.98;;;4.53;;
60233;SDS011;49514;43.538;-5.708;2023-12-20T23:58:04;12.93;;;1.77;;
